Time;durP1;ratioP1;P1;durP2;ratioP2;P2;SDS_P1;SDS_P2;PMS_P1;PMS_P2;Temp;Humidity;BMP_temperature;BMP_pressure;BME280_temperature;BME280_humidity;BME280_pressure;Samples;Min_cycle;Max_cycle;Signal;HPM_P1;HPM_P2
2022/09/28 00:01:43;;;;;;;4.03;1.60;;;9.40;99.90;;;;;;5053737;28;20681;-86
2022/09/28 00:04:10;;;;;;;2.43;2.00;;;9.50;99.90;;;;;;5053366;28;20274;-86
2022/09/28 00:06:36;;;;;;;2.03;1.67;;;9.50;99.90;;;;;;5075744;28;20667;-85
2022/09/28 00:09:03;;;;;;;2.33;1.67;;;9.40;99.90;;;;;;5059095;28;20193;-84
2022/09/28 00:11:29;;;;;;;2.97;1.20;;;9.40;99.90;;;;;;5071004;28;20228;-87
2022/09/28 00:13:58;;;;;;;1.60;1.50;;;9.40;99.90;;;;;;5076969;28;20319;-84
2022/09/28 00:16:27;;;;;;;3.50;1.93;;;9.40;99.90;;;;;;5071430;28;20220;-84
2022/09/28 00:18:54;;;;;;;2.50;1.87;;;9.40;99.90;;;;;;5076860;28;20217;-85
2022/09/28 00:21:30;;;;;;;1.80;1.70;;;9.40;99.90;;;;;;5070909;28;20217;-84
2022/09/28 00:24:17;;;;;;;2.60;1.30;;;9.40;99.90;;;;;;5069726;28;20270;-84
2022/09/28 00:26:59;;;;;;;1.00;0.97;;;9.40;99.90;;;;;;5074711;28;20168;-85
2022/09/28 00:29:30;;;;;;;1.83;1.67;;;9.40;99.90;;;;;;5085661;28;20213;-85
2022/09/28 00:32:01;;;;;;;3.80;1.47;;;9.40;99.90;;;;;;5071313;28;20217;-85
2022/09/28 00:34:32;;;;;;;9.07;2.83;;;9.50;99.90;;;;;;5075601;28;20212;-86
2022/09/28 00:36:58;;;;;;;4.73;1.80;;;9.50;99.90;;;;;;5074356;28;20262;-86
2022/09/28 00:39:25;;;;;;;2.53;1.60;;;9.40;99.90;;;;;;5076151;28;20212;-86
2022/09/28 00:41:52;;;;;;;2.67;2.07;;;9.40;99.90;;;;;;5071495;28;20189;-86
2022/09/28 00:44:42;;;;;;;3.60;2.00;;;9.40;99.90;;;;;;5069093;28;20185;-86
2022/09/28 00:47:36;;;;;;;1.23;1.13;;;9.40;99.90;;;;;;5074126;28;20212;-86
2022/09/28 00:50:10;;;;;;;3.83;1.97;;;9.40;99.90;;;;;;5073428;28;20303;-86
2022/09/28 00:52:46;;;;;;;2.30;2.10;;;9.50;99.90;;;;;;5073392;28;20224;-86
2022/09/28 00:55:16;;;;;;;4.30;3.07;;;9.40;99.90;;;;;;5070033;28;20219;-84
2022/09/28 00:57:47;;;;;;;2.33;2.07;;;9.40;99.90;;;;;;5066739;28;20205;-84
2022/09/28 01:00:14;;;;;;;1.57;1.13;;;9.40;99.90;;;;;;5071247;28;20671;-86
2022/09/28 01:02:40;;;;;;;1.90;1.30;;;9.40;99.90;;;;;;5057490;28;20197;-85
2022/09/28 01:05:09;;;;;;;3.27;1.90;;;9.40;99.90;;;;;;5075133;28;20324;-86
2022/09/28 01:07:36;;;;;;;5.13;1.67;;;9.40;99.90;;;;;;5073229;28;20247;-86
2022/09/28 01:10:03;;;;;;;2.10;1.67;;;9.40;99.90;;;;;;5068799;28;20707;-84
2022/09/28 01:12:29;;;;;;;3.37;2.17;;;9.40;99.90;;;;;;5069304;28;20224;-85
2022/09/28 01:14:56;;;;;;;2.47;1.67;;;9.40;99.90;;;;;;5069475;28;20486;-84
2022/09/28 01:17:29;;;;;;;4.77;1.97;;;9.30;99.90;;;;;;5068493;28;20658;-85
2022/09/28 01:20:06;;;;;;;2.47;2.20;;;9.30;99.90;;;;;;5077370;28;20274;-85
2022/09/28 01:23:13;;;;;;;1.60;1.47;;;9.30;99.90;;;;;;5068605;28;20421;-84
2022/09/28 01:25:57;;;;;;;2.03;1.67;;;9.30;99.90;;;;;;5034873;28;20216;-83
2022/09/28 01:28:26;;;;;;;2.50;2.07;;;9.20;99.90;;;;;;5075962;28;20220;-84
2022/09/28 01:31:06;;;;;;;2.50;1.50;;;9.20;99.90;;;;;;5070267;28;20217;-84
2022/09/28 01:33:49;;;;;;;2.53;1.60;;;9.20;99.90;;;;;;5073056;28;20224;-83
2022/09/28 01:36:24;;;;;;;1.23;1.17;;;9.20;99.90;;;;;;5073657;28;20754;-84
2022/09/28 01:38:56;;;;;;;3.43;1.50;;;9.20;99.90;;;;;;5065754;28;20185;-84
2022/09/28 01:41:24;;;;;;;1.30;1.23;;;9.20;99.90;;;;;;5067105;28;20500;-84
2022/09/28 01:43:56;;;;;;;2.20;2.00;;;9.20;99.90;;;;;;5066923;28;20213;-84
2022/09/28 01:46:26;;;;;;;1.60;1.03;;;9.10;99.90;;;;;;5078304;28;20250;-84
2022/09/28 01:49:06;;;;;;;2.03;1.83;;;9.10;99.90;;;;;;5073065;28;20220;-84
2022/09/28 01:51:39;;;;;;;1.63;1.53;;;9.10;99.90;;;;;;5068287;28;20266;-83
2022/09/28 01:54:31;;;;;;;1.23;1.10;;;9.20;99.90;;;;;;5068182;28;20216;-83
2022/09/28 01:57:17;;;;;;;2.40;1.60;;;9.20;99.90;;;;;;5067118;28;20223;-83
2022/09/28 01:59:59;;;;;;;4.90;2.60;;;9.10;99.90;;;;;;5071282;28;20181;-83
2022/09/28 02:02:31;;;;;;;1.90;1.80;;;9.10;99.90;;;;;;5069805;28;20285;-84
2022/09/28 02:05:09;;;;;;;2.30;2.00;;;9.10;99.90;;;;;;5071394;28;20256;-83
2022/09/28 02:07:44;;;;;;;5.73;1.57;;;9.10;99.90;;;;;;5074545;28;20220;-84
2022/09/28 02:10:18;;;;;;;6.23;1.57;;;9.10;99.90;;;;;;5067142;28;20243;-83
2022/09/28 02:13:22;;;;;;;1.90;1.57;;;9.10;99.90;;;;;;5075774;28;20260;-84
2022/09/28 02:15:50;;;;;;;1.93;1.47;;;9.10;99.90;;;;;;5066900;28;20299;-83
2022/09/28 02:18:16;;;;;;;2.43;2.20;;;9.10;99.90;;;;;;5065447;28;20217;-83
2022/09/28 02:20:50;;;;;;;1.87;1.33;;;9.20;99.90;;;;;;5072618;28;20471;-83
2022/09/28 02:23:16;;;;;;;2.00;1.33;;;9.10;99.90;;;;;;5066218;28;20213;-84
2022/09/28 02:25:48;;;;;;;5.53;2.27;;;9.10;99.90;;;;;;5067927;28;20691;-83
2022/09/28 02:28:14;;;;;;;1.60;0.87;;;9.20;99.90;;;;;;5070430;28;20224;-83
2022/09/28 02:30:43;;;;;;;1.77;1.67;;;9.20;99.90;;;;;;5071654;28;20848;-84
2022/09/28 02:33:16;;;;;;;4.17;1.10;;;9.20;99.90;;;;;;5057088;28;20918;-83
2022/09/28 02:35:43;;;;;;;1.67;1.23;;;9.20;99.90;;;;;;5067452;28;20177;-83
2022/09/28 02:38:13;;;;;;;2.97;1.60;;;9.20;99.90;;;;;;5072633;28;20251;-84
2022/09/28 02:40:39;;;;;;;2.00;1.57;;;9.20;99.90;;;;;;5072553;28;20556;-84
2022/09/28 02:43:23;;;;;;;1.40;1.30;;;9.30;99.90;;;;;;5054203;28;20802;-84
2022/09/28 02:46:15;;;;;;;5.53;1.40;;;9.30;99.90;;;;;;5075411;28;20219;-83
2022/09/28 02:48:43;;;;;;;1.57;1.47;;;9.30;99.90;;;;;;5071893;28;20201;-82
2022/09/28 02:51:36;;;;;;;1.93;1.77;;;9.30;99.90;;;;;;5075964;28;20235;-85
2022/09/28 02:54:07;;;;;;;0.97;0.80;;;9.40;99.90;;;;;;5072742;28;20227;-84
2022/09/28 02:57:00;;;;;;;2.00;1.13;;;9.40;99.90;;;;;;5074221;28;20185;-82
2022/09/28 02:59:35;;;;;;;1.40;1.30;;;9.50;99.90;;;;;;5072559;28;20205;-83
2022/09/28 03:02:26;;;;;;;2.47;1.97;;;9.50;99.90;;;;;;5073448;28;20223;-84
2022/09/28 03:05:02;;;;;;;1.63;1.13;;;9.50;99.90;;;;;;5071433;28;20244;-83
2022/09/28 03:07:34;;;;;;;1.90;1.30;;;9.50;99.90;;;;;;5072706;28;20262;-84
2022/09/28 03:10:14;;;;;;;7.20;2.10;;;9.50;99.90;;;;;;5072449;28;20685;-82
2022/09/28 03:12:43;;;;;;;1.33;1.23;;;9.50;99.90;;;;;;5075372;28;20307;-82
2022/09/28 03:15:18;;;;;;;1.70;1.60;;;9.50;99.90;;;;;;5073428;28;20216;-83
2022/09/28 03:17:44;;;;;;;2.10;1.47;;;9.50;99.90;;;;;;5071834;28;20647;-83
2022/09/28 03:20:10;;;;;;;2.23;1.77;;;9.50;99.90;;;;;;5074826;28;20246;-84
2022/09/28 03:22:37;;;;;;;2.43;1.50;;;9.60;99.90;;;;;;5072318;28;20275;-84
2022/09/28 03:25:04;;;;;;;1.93;1.23;;;9.60;99.90;;;;;;5041277;28;20220;-83
2022/09/28 03:27:29;;;;;;;1.77;1.67;;;9.60;99.90;;;;;;5079460;28;20300;-84
2022/09/28 03:29:55;;;;;;;2.10;1.80;;;9.60;99.90;;;;;;5077919;28;20262;-83
2022/09/28 03:32:21;;;;;;;1.73;1.57;;;9.50;99.90;;;;;;5074706;28;20213;-85
2022/09/28 03:34:46;;;;;;;2.30;2.10;;;9.50;99.90;;;;;;5079327;28;20670;-83
2022/09/28 03:37:12;;;;;;;1.77;1.60;;;9.60;99.90;;;;;;5074573;28;20220;-84
2022/09/28 03:39:38;;;;;;;1.97;1.00;;;9.50;99.90;;;;;;5076007;28;20829;-83
2022/09/28 03:42:04;;;;;;;1.60;1.50;;;9.60;99.90;;;;;;5076863;28;20200;-83
2022/09/28 03:44:29;;;;;;;3.17;2.30;;;9.60;99.90;;;;;;5076666;28;20205;-83
2022/09/28 03:46:55;;;;;;;4.43;2.07;;;9.60;99.90;;;;;;5057036;28;20274;-83
2022/09/28 03:49:21;;;;;;;1.63;1.53;;;9.60;99.90;;;;;;5075676;28;20232;-83
2022/09/28 03:51:47;;;;;;;2.50;1.90;;;9.60;99.90;;;;;;5074995;28;20670;-82
2022/09/28 03:54:12;;;;;;;3.97;2.20;;;9.60;99.90;;;;;;5057012;28;20220;-83
2022/09/28 03:56:39;;;;;;;3.53;2.00;;;9.60;99.90;;;;;;5076190;28;20201;-83
2022/09/28 03:59:05;;;;;;;1.83;1.70;;;9.70;99.90;;;;;;5073896;28;20249;-82
2022/09/28 04:01:31;;;;;;;5.57;1.63;;;9.70;99.90;;;;;;5074419;28;20660;-81
2022/09/28 04:03:57;;;;;;;1.60;1.33;;;9.70;99.90;;;;;;5075583;28;20216;-83
2022/09/28 04:06:23;;;;;;;2.07;1.50;;;9.70;99.90;;;;;;5076939;28;21161;-83
2022/09/28 04:08:50;;;;;;;2.30;2.07;;;9.60;99.90;;;;;;5076341;28;20284;-83
2022/09/28 04:11:16;;;;;;;1.30;1.27;;;9.60;99.90;;;;;;5077911;28;20289;-82
2022/09/28 04:13:42;;;;;;;1.87;1.57;;;9.60;99.90;;;;;;5075783;28;20237;-83
2022/09/28 04:16:09;;;;;;;1.47;1.37;;;9.60;99.90;;;;;;5058766;28;20236;-81
2022/09/28 04:18:35;;;;;;;1.53;1.43;;;9.60;99.90;;;;;;5075195;28;20274;-83
2022/09/28 04:21:05;;;;;;;1.67;1.57;;;9.50;99.90;;;;;;5057785;28;20186;-85
2022/09/28 04:23:33;;;;;;;2.20;2.10;;;9.50;99.90;;;;;;5079430;28;20200;-83
2022/09/28 04:25:59;;;;;;;1.80;1.00;;;9.50;99.90;;;;;;5075510;28;20221;-82
2022/09/28 04:31:18;;;;;;;1.57;1.10;;;9.30;99.90;;;;;;5077541;28;20221;-82
2022/09/28 04:33:43;;;;;;;2.17;1.53;;;9.40;99.90;;;;;;5076467;28;20269;-83
2022/09/28 04:36:09;;;;;;;2.03;1.93;;;9.30;99.90;;;;;;5075706;28;20620;-83
2022/09/28 04:38:36;;;;;;;1.23;1.13;;;9.30;99.90;;;;;;5079081;28;20185;-83
2022/09/28 04:41:03;;;;;;;1.97;0.87;;;9.30;99.90;;;;;;5076307;28;20391;-83
2022/09/28 04:43:28;;;;;;;1.80;1.70;;;9.30;99.90;;;;;;5060784;28;20221;-85
2022/09/28 04:45:59;;;;;;;1.20;1.10;;;9.30;99.90;;;;;;5073929;28;20518;-86
2022/09/28 04:48:25;;;;;;;2.27;1.63;;;9.20;99.90;;;;;;5065652;28;20212;-84
2022/09/28 04:50:55;;;;;;;1.00;1.00;;;9.20;99.90;;;;;;5071291;28;20188;-84
2022/09/28 04:53:21;;;;;;;1.47;1.07;;;9.20;99.90;;;;;;5071024;28;20308;-84
2022/09/28 04:56:01;;;;;;;1.70;1.20;;;9.20;99.90;;;;;;5060029;28;20224;-87
2022/09/28 04:58:27;;;;;;;1.37;1.20;;;9.10;99.90;;;;;;5061805;28;20213;-86
2022/09/28 05:00:57;;;;;;;1.53;1.30;;;9.10;99.90;;;;;;5069716;28;20296;-87
2022/09/28 05:03:23;;;;;;;1.90;1.80;;;9.10;99.90;;;;;;5079106;28;20213;-89
2022/09/28 05:05:49;;;;;;;1.67;1.57;;;9.20;99.90;;;;;;5072704;28;20211;-89
2022/09/28 05:08:15;;;;;;;6.13;2.30;;;9.10;99.90;;;;;;5070568;28;20193;-87
2022/09/28 05:10:41;;;;;;;1.07;1.00;;;9.10;99.90;;;;;;5074962;28;20282;-85
2022/09/28 05:13:08;;;;;;;1.30;1.27;;;9.10;99.90;;;;;;5073903;28;20244;-86
2022/09/28 05:15:35;;;;;;;1.80;1.27;;;9.10;99.90;;;;;;5070445;28;20300;-84
2022/09/28 05:18:01;;;;;;;2.40;1.70;;;9.10;99.90;;;;;;5072781;28;20196;-84
2022/09/28 05:20:27;;;;;;;1.30;1.20;;;9.00;99.90;;;;;;5073259;28;20181;-86
2022/09/28 05:22:53;;;;;;;1.77;0.93;;;9.00;99.90;;;;;;5073165;28;20220;-86
2022/09/28 05:25:19;;;;;;;1.20;1.10;;;9.00;99.90;;;;;;5075031;28;20216;-87
2022/09/28 05:27:44;;;;;;;1.27;1.17;;;9.00;99.90;;;;;;5069073;28;20210;-85
2022/09/28 05:30:10;;;;;;;1.53;1.23;;;9.00;99.90;;;;;;5069138;28;20228;-86
2022/09/28 05:32:43;;;;;;;1.03;1.00;;;9.00;99.90;;;;;;5053608;28;20256;-89
2022/09/28 05:35:10;;;;;;;2.10;2.00;;;9.00;99.90;;;;;;5070973;28;20248;-84
2022/09/28 05:37:39;;;;;;;1.27;1.27;;;9.00;99.90;;;;;;5074413;28;20633;-85
2022/09/28 05:40:06;;;;;;;2.67;1.70;;;9.00;99.90;;;;;;5070958;28;20717;-85
2022/09/28 05:42:31;;;;;;;2.10;1.77;;;9.00;99.90;;;;;;5072326;28;20722;-85
2022/09/28 05:44:57;;;;;;;2.17;1.73;;;9.10;99.90;;;;;;5054107;28;20281;-85
2022/09/28 05:47:27;;;;;;;1.83;1.43;;;9.10;99.90;;;;;;5064393;28;20196;-84
2022/09/28 05:49:53;;;;;;;1.23;0.90;;;9.10;99.90;;;;;;5067336;28;20248;-86
2022/09/28 05:52:19;;;;;;;2.23;1.53;;;9.10;99.90;;;;;;5056616;28;20260;-85
2022/09/28 05:54:45;;;;;;;1.80;1.40;;;9.10;99.90;;;;;;5054726;28;20262;-89
2022/09/28 05:57:12;;;;;;;1.77;1.20;;;9.20;99.90;;;;;;5052646;28;20848;-87
2022/09/28 05:59:37;;;;;;;1.87;1.60;;;9.20;99.90;;;;;;5070948;28;20184;-88
2022/09/28 06:02:04;;;;;;;1.97;1.37;;;9.20;99.90;;;;;;5072060;28;20262;-86
2022/09/28 06:04:30;;;;;;;2.17;1.50;;;9.30;99.90;;;;;;5072816;28;20312;-87
2022/09/28 06:06:57;;;;;;;1.53;1.43;;;9.30;99.90;;;;;;5075268;28;20646;-89
2022/09/28 06:09:23;;;;;;;1.53;1.37;;;9.40;99.90;;;;;;5073577;28;20237;-91
2022/09/28 06:11:50;;;;;;;1.17;1.07;;;9.40;99.90;;;;;;5076546;28;20457;-88
2022/09/28 06:14:16;;;;;;;1.03;1.03;;;9.30;99.90;;;;;;5075529;28;20339;-89
2022/09/28 06:16:41;;;;;;;2.07;1.47;;;9.30;99.90;;;;;;5068765;28;20229;-93
2022/09/28 06:19:08;;;;;;;3.73;1.47;;;9.30;99.90;;;;;;5069553;28;20228;-88
2022/09/28 06:21:34;;;;;;;1.43;1.33;;;9.50;99.90;;;;;;5071269;28;20205;-90
2022/09/28 06:24:01;;;;;;;3.00;1.97;;;9.80;99.90;;;;;;5056673;28;20745;-85
2022/09/28 06:26:27;;;;;;;2.00;1.83;;;10.20;99.90;;;;;;5050221;28;20635;-87
2022/09/28 06:28:52;;;;;;;1.50;1.40;;;11.10;99.90;;;;;;5072406;28;20220;-84
2022/09/28 06:31:22;;;;;;;2.43;1.57;;;12.90;99.90;;;;;;5068309;28;20265;-86
2022/09/28 06:33:49;;;;;;;3.27;2.37;;;14.50;99.90;;;;;;5071566;28;20228;-86
2022/09/28 06:36:15;;;;;;;2.83;2.40;;;15.60;99.90;;;;;;5077234;28;20224;-84
2022/09/28 06:38:41;;;;;;;3.87;3.20;;;16.70;99.90;;;;;;5085286;28;20193;-87
2022/09/28 06:41:08;;;;;;;7.93;3.03;;;17.80;99.90;;;;;;5070944;28;20782;-87
2022/09/28 06:43:34;;;;;;;6.67;3.53;;;19.20;99.90;;;;;;5052153;28;20225;-87
2022/09/28 06:46:01;;;;;;;6.77;4.10;;;20.40;99.90;;;;;;5071023;28;20217;-85
2022/09/28 06:48:27;;;;;;;2.93;2.43;;;21.60;99.90;;;;;;5070078;28;20205;-86
2022/09/28 06:50:53;;;;;;;4.73;2.10;;;23.00;99.90;;;;;;5054417;28;20616;-86
2022/09/28 06:53:18;;;;;;;6.83;1.30;;;24.10;99.90;;;;;;5070268;28;20305;-85
2022/09/28 06:55:47;;;;;;;1.47;1.20;;;25.10;99.90;;;;;;5069174;28;20678;-85
2022/09/28 06:58:18;;;;;;;1.97;1.40;;;25.80;99.90;;;;;;5075325;28;20254;-87
2022/09/28 07:00:45;;;;;;;2.27;1.20;;;26.40;99.90;;;;;;5070392;28;20297;-86
2022/09/28 07:03:29;;;;;;;2.80;1.30;;;26.90;99.90;;;;;;5070189;28;20274;-86
2022/09/28 07:05:55;;;;;;;0.90;0.80;;;27.20;99.90;;;;;;5071685;28;20181;-88
2022/09/28 07:08:25;;;;;;;4.97;0.90;;;27.50;99.90;;;;;;5073427;28;20271;-85
2022/09/28 07:10:56;;;;;;;0.60;0.60;;;27.40;99.90;;;;;;5068574;28;20244;-86
2022/09/28 07:13:24;;;;;;;0.50;0.50;;;25.90;99.90;;;;;;5069506;28;20319;-86
2022/09/28 07:16:08;;;;;;;1.80;0.97;;;24.00;99.90;;;;;;5070423;28;20216;-86
2022/09/28 07:18:34;;;;;;;1.00;0.83;;;21.60;99.90;;;;;;5071588;28;20689;-87
2022/09/28 07:21:01;;;;;;;1.00;0.90;;;18.80;99.90;;;;;;5050941;28;20217;-87
2022/09/28 07:23:28;;;;;;;1.17;1.07;;;17.80;99.90;;;;;;5071112;28;20444;-88
2022/09/28 07:25:54;;;;;;;2.60;1.00;;;19.10;99.90;;;;;;5054412;28;20219;-86
2022/09/28 07:28:21;;;;;;;1.03;0.90;;;21.70;99.90;;;;;;5069299;28;20682;-87
2022/09/28 07:30:47;;;;;;;2.63;0.93;;;24.10;99.90;;;;;;5071315;28;20213;-88
2022/09/28 07:33:14;;;;;;;0.97;0.70;;;26.10;99.90;;;;;;5035520;28;20239;-86
2022/09/28 07:35:41;;;;;;;1.47;0.70;;;27.20;99.90;;;;;;5068789;28;20258;-87
2022/09/28 07:38:07;;;;;;;1.57;0.90;;;28.00;99.90;;;;;;5070184;28;20227;-88
2022/09/28 07:43:20;;;;;;;1.57;0.87;;;28.60;99.90;;;;;;5072749;28;20228;-88
2022/09/28 07:45:51;;;;;;;1.83;0.80;;;28.60;99.90;;;;;;5056129;28;20208;-86
2022/09/28 07:48:18;;;;;;;1.37;0.67;;;28.60;99.90;;;;;;5066735;28;20217;-86
2022/09/28 07:50:52;;;;;;;0.80;0.70;;;28.10;99.90;;;;;;5067167;28;20189;-86
2022/09/28 07:53:19;;;;;;;0.97;0.60;;;28.10;99.90;;;;;;5071769;28;20746;-86
2022/09/28 07:55:54;;;;;;;1.77;0.65;;;28.00;99.90;;;;;;5068357;28;20217;-85
2022/09/28 07:58:21;;;;;;;0.63;0.60;;;28.10;99.90;;;;;;5069760;28;20252;-86
2022/09/28 08:00:48;;;;;;;2.88;0.60;;;28.20;99.90;;;;;;5067662;28;20215;-86
2022/09/28 08:03:15;;;;;;;0.85;0.52;;;28.20;99.90;;;;;;5052794;28;20327;-88
2022/09/28 08:05:41;;;;;;;0.40;0.40;;;28.50;99.90;;;;;;5069568;28;20173;-88
2022/09/28 08:08:08;;;;;;;0.85;0.47;;;28.50;99.90;;;;;;5073558;28;20319;-86
2022/09/28 08:10:36;;;;;;;0.77;0.43;;;28.80;99.90;;;;;;5075534;28;20247;-87
2022/09/28 08:13:03;;;;;;;4.65;0.55;;;28.70;99.90;;;;;;5076512;28;20386;-86
2022/09/28 08:15:35;;;;;;;2.83;0.30;;;28.80;99.90;;;;;;5074445;28;20225;-88
2022/09/28 08:18:00;;;;;;;3.70;0.60;;;28.50;99.90;;;;;;5070195;28;20242;-86
2022/09/28 08:23:10;;;;;;;3.83;0.47;;;27.40;99.90;;;;;;5074621;28;20238;-86
2022/09/28 08:25:37;;;;;;;0.90;0.30;;;27.40;99.90;;;;;;5053277;28;20865;-87
2022/09/28 08:28:05;;;;;;;3.28;0.50;;;27.40;99.90;;;;;;5076669;28;20217;-87
2022/09/28 08:30:31;;;;;;;1.23;0.40;;;27.70;99.90;;;;;;5075624;28;20213;-89
2022/09/28 08:32:56;;;;;;;0.47;0.40;;;27.00;99.90;;;;;;5073916;28;20228;-89
2022/09/28 08:35:24;;;;;;;1.17;0.60;;;27.50;99.90;;;;;;5056290;28;20193;-87
2022/09/28 08:37:52;;;;;;;0.30;0.30;;;27.70;99.90;;;;;;5056943;28;20671;-89
2022/09/28 08:40:24;;;;;;;3.85;0.40;;;27.80;99.90;;;;;;5058144;28;20224;-88
2022/09/28 08:43:01;;;;;;;4.75;0.40;;;28.20;99.90;;;;;;5072189;28;20221;-86
2022/09/28 08:45:30;;;;;;;0.30;0.30;;;28.40;99.90;;;;;;5072186;28;20350;-87
2022/09/28 08:51:05;;;;;;;2.58;0.47;;;28.40;99.90;;;;;;5075396;28;20251;-87
2022/09/28 08:54:04;;;;;;;0.60;0.35;;;26.80;99.90;;;;;;5075628;28;20330;-90
2022/09/28 08:56:43;;;;;;;0.47;0.43;;;25.60;99.90;;;;;;5075134;28;20209;-89
2022/09/28 08:59:19;;;;;;;0.32;0.32;;;23.60;99.90;;;;;;5070866;28;20221;-88
2022/09/28 09:02:12;;;;;;;0.40;0.40;;;22.90;99.90;;;;;;5073029;28;20251;-88
2022/09/28 09:04:38;;;;;;;0.33;0.33;;;21.60;99.90;;;;;;5073514;28;20216;-87
2022/09/28 09:07:19;;;;;;;1.13;0.30;;;21.00;99.90;;;;;;5070424;28;20238;-85
2022/09/28 09:10:03;;;;;;;0.83;0.30;;;20.40;99.90;;;;;;5074277;28;20717;-87
2022/09/28 09:12:47;;;;;;;1.07;0.40;;;20.60;99.90;;;;;;5073464;28;20228;-86
2022/09/28 09:15:29;;;;;;;0.27;0.27;;;19.20;99.90;;;;;;5076208;28;20209;-88
2022/09/28 09:18:13;;;;;;;0.30;0.30;;;18.10;99.90;;;;;;5073762;28;20185;-85
2022/09/28 09:20:58;;;;;;;0.40;0.40;;;17.80;99.90;;;;;;5071832;28;20522;-86
2022/09/28 09:23:54;;;;;;;0.40;0.40;;;17.80;99.90;;;;;;5073270;28;20216;-86
2022/09/28 09:26:30;;;;;;;0.30;0.30;;;16.70;99.90;;;;;;5054113;28;20216;-87
2022/09/28 09:29:24;;;;;;;0.33;0.33;;;16.70;99.90;;;;;;5071412;28;20236;-87
2022/09/28 09:32:25;;;;;;;0.30;0.30;;;16.80;99.90;;;;;;5072552;28;20212;-87
2022/09/28 09:35:11;;;;;;;0.83;0.30;;;16.40;99.90;;;;;;5038502;28;20217;-87
2022/09/28 09:38:12;;;;;;;0.23;0.23;;;16.90;99.90;;;;;;5069810;28;20213;-86
2022/09/28 09:41:16;;;;;;;0.30;0.30;;;17.20;99.90;;;;;;5014560;28;20233;-87
2022/09/28 09:44:32;;;;;;;1.00;0.40;;;17.30;99.90;;;;;;5074591;28;20236;-85
2022/09/28 09:47:09;;;;;;;3.43;0.40;;;18.40;99.90;;;;;;5001725;28;20207;-88
2022/09/28 09:49:37;;;;;;;0.30;0.30;;;19.40;99.90;;;;;;5070683;28;20209;-87
2022/09/28 09:52:22;;;;;;;2.30;0.70;;;20.20;99.90;;;;;;5074168;28;20225;-85
2022/09/28 09:55:24;;;;;;;0.40;0.40;;;21.10;99.90;;;;;;5070211;28;20216;-89
2022/09/28 09:58:11;;;;;;;1.07;0.30;;;21.70;99.90;;;;;;5071472;28;20213;-87
2022/09/28 10:00:41;;;;;;;0.47;0.47;;;23.00;99.90;;;;;;5070820;28;20220;-89
2022/09/28 10:03:18;;;;;;;0.33;0.30;;;21.80;99.90;;;;;;5074397;28;20217;-89
2022/09/28 10:05:50;;;;;;;0.33;0.33;;;22.80;99.90;;;;;;5091643;28;20185;-86
2022/09/28 10:08:20;;;;;;;0.40;0.40;;;23.80;99.90;;;;;;5071610;28;20228;-86
2022/09/28 10:11:14;;;;;;;1.57;0.57;;;23.80;99.90;;;;;;5070123;28;20633;-87
2022/09/28 10:13:39;;;;;;;0.23;0.23;;;22.10;99.90;;;;;;5072430;28;20229;-87
2022/09/28 10:16:06;;;;;;;0.30;0.30;;;22.50;99.90;;;;;;5074577;28;20575;-87
2022/09/28 10:18:33;;;;;;;1.23;0.30;;;23.30;99.90;;;;;;5055527;28;20636;-87
2022/09/28 10:20:59;;;;;;;1.17;0.40;;;24.10;99.90;;;;;;5072562;28;20259;-86
2022/09/28 10:23:29;;;;;;;0.40;0.40;;;23.00;99.90;;;;;;5054673;28;20638;-87
2022/09/28 10:26:09;;;;;;;0.20;0.20;;;23.40;99.90;;;;;;5071261;28;20288;-88
2022/09/28 10:28:54;;;;;;;0.30;0.30;;;24.40;99.90;;;;;;5075738;28;20273;-85
2022/09/28 10:31:34;;;;;;;0.50;0.40;;;25.50;99.90;;;;;;5071841;28;20258;-87
2022/09/28 10:34:00;;;;;;;0.30;0.30;;;26.20;99.90;;;;;;5069685;28;20228;-85
2022/09/28 10:36:27;;;;;;;0.30;0.30;;;26.40;99.90;;;;;;5051187;28;20225;-85
2022/09/28 10:38:54;;;;;;;0.82;0.47;;;26.50;99.90;;;;;;5072820;28;20204;-84
2022/09/28 10:41:21;;;;;;;1.85;0.30;;;26.60;99.90;;;;;;5073445;28;20200;-85
2022/09/28 10:44:09;;;;;;;0.57;0.40;;;26.70;99.90;;;;;;5072467;28;20212;-85
2022/09/28 10:46:37;;;;;;;1.65;0.40;;;25.90;99.90;;;;;;5071514;28;20209;-85
2022/09/28 10:49:12;;;;;;;0.28;0.22;;;25.60;99.90;;;;;;5074194;28;20709;-88
2022/09/28 10:51:42;;;;;;;1.13;0.38;;;24.50;99.90;;;;;;5072311;28;20307;-90
2022/09/28 10:54:16;;;;;;;0.68;0.40;;;22.80;99.90;;;;;;5070561;28;20249;-86
2022/09/28 10:56:42;;;;;;;0.20;0.20;;;22.20;99.90;;;;;;5088740;28;20400;-85
2022/09/28 10:59:27;;;;;;;3.90;0.57;;;21.70;99.90;;;;;;5071131;28;20221;-85
2022/09/28 11:02:12;;;;;;;0.30;0.30;;;21.00;99.90;;;;;;5073411;28;20225;-85
2022/09/28 11:04:42;;;;;;;0.30;0.30;;;20.60;99.90;;;;;;5073072;28;20223;-87
2022/09/28 11:07:25;;;;;;;3.63;0.50;;;19.10;99.90;;;;;;5072602;28;20216;-88
2022/09/28 11:09:53;;;;;;;2.37;0.43;;;17.90;99.90;;;;;;5077354;28;20246;-86
2022/09/28 11:12:22;;;;;;;2.53;0.40;;;16.80;99.90;;;;;;5073272;28;20205;-83
2022/09/28 11:15:00;;;;;;;0.40;0.40;;;16.50;99.90;;;;;;5073818;28;20173;-87
2022/09/28 11:17:27;;;;;;;0.40;0.40;;;16.10;99.90;;;;;;5072848;28;20288;-86
2022/09/28 11:19:59;;;;;;;3.43;0.43;;;16.20;99.90;;;;;;5074679;28;20220;-84
2022/09/28 11:22:43;;;;;;;0.40;0.40;;;16.90;99.90;;;;;;5072058;28;20301;-85
2022/09/28 11:25:20;;;;;;;3.23;0.60;;;18.30;99.90;;;;;;5069672;28;20671;-85
2022/09/28 11:27:51;;;;;;;1.27;0.30;;;19.80;99.90;;;;;;5073359;28;20215;-87
2022/09/28 11:30:37;;;;;;;0.23;0.23;;;20.20;99.90;;;;;;5076576;28;20270;-86
2022/09/28 11:33:10;;;;;;;0.53;0.30;;;19.90;99.90;;;;;;5074918;28;20214;-85
2022/09/28 11:36:10;;;;;;;0.23;0.23;;;19.90;99.90;;;;;;5074250;28;20284;-86
2022/09/28 11:38:54;;;;;;;0.30;0.27;;;19.20;99.90;;;;;;5075209;28;20267;-90
2022/09/28 11:41:26;;;;;;;0.17;0.17;;;17.20;99.90;;;;;;5084250;28;20231;-90
2022/09/28 11:44:07;;;;;;;0.10;0.10;;;17.20;99.90;;;;;;5074003;28;20224;-89
2022/09/28 11:46:39;;;;;;;0.20;0.20;;;18.30;99.90;;;;;;5076519;28;20221;-90
2022/09/28 11:49:42;;;;;;;0.20;0.20;;;18.80;99.90;;;;;;5078663;28;20221;-90
2022/09/28 11:52:19;;;;;;;0.13;0.13;;;18.80;99.90;;;;;;5080044;28;20217;-89
2022/09/28 11:55:00;;;;;;;0.33;0.20;;;17.90;99.90;;;;;;5077494;28;20285;-90
2022/09/28 11:57:31;;;;;;;0.30;0.30;;;17.40;99.90;;;;;;5080127;28;20216;-88
2022/09/28 12:00:06;;;;;;;0.20;0.20;;;18.10;99.90;;;;;;5079303;28;20180;-87
2022/09/28 12:02:44;;;;;;;0.20;0.20;;;18.50;99.90;;;;;;5081923;28;20208;-88
2022/09/28 12:05:18;;;;;;;0.87;0.30;;;18.20;99.90;;;;;;5079336;28;20246;-88
2022/09/28 12:08:01;;;;;;;1.60;0.27;;;17.90;99.90;;;;;;5079428;28;20275;-91
2022/09/28 12:10:38;;;;;;;0.20;0.20;;;17.80;99.90;;;;;;5080595;28;20328;-88
2022/09/28 12:13:26;;;;;;;0.20;0.20;;;18.40;99.90;;;;;;5078133;28;20239;-90
2022/09/28 12:15:54;;;;;;;1.10;0.30;;;18.70;99.90;;;;;;5080772;28;20220;-90
2022/09/28 12:18:42;;;;;;;0.20;0.20;;;18.90;99.90;;;;;;5093116;28;20221;-89
2022/09/28 12:21:26;;;;;;;0.30;0.30;;;18.70;99.90;;;;;;5076789;28;20273;-87
2022/09/28 12:23:55;;;;;;;1.27;0.30;;;18.20;99.90;;;;;;5077433;28;20200;-88
2022/09/28 12:26:38;;;;;;;0.13;0.13;;;17.80;99.90;;;;;;5079313;28;20196;-88
2022/09/28 12:29:12;;;;;;;0.20;0.20;;;18.10;99.90;;;;;;5075607;28;20226;-87
2022/09/28 12:32:03;;;;;;;0.20;0.20;;;18.20;99.90;;;;;;5078283;28;20864;-88
2022/09/28 12:34:29;;;;;;;0.37;0.30;;;17.90;99.90;;;;;;5062400;28;20351;-87
2022/09/28 12:37:33;;;;;;;0.20;0.20;;;17.30;99.90;;;;;;5079438;28;20216;-88
2022/09/28 12:40:05;;;;;;;0.23;0.23;;;16.70;99.90;;;;;;5076286;28;20229;-88
2022/09/28 12:43:02;;;;;;;0.20;0.20;;;17.30;99.90;;;;;;5078553;28;20231;-89
2022/09/28 12:45:33;;;;;;;0.47;0.47;;;17.00;99.90;;;;;;5077228;28;21005;-87
2022/09/28 12:48:14;;;;;;;0.67;0.50;;;16.70;99.90;;;;;;5080391;28;20226;-90
2022/09/28 12:51:08;;;;;;;0.20;0.20;;;16.50;99.90;;;;;;5077680;28;20235;-88
2022/09/28 12:53:33;;;;;;;0.20;0.20;;;16.60;99.90;;;;;;5077423;28;20251;-86
2022/09/28 12:56:10;;;;;;;2.63;0.23;;;16.70;99.90;;;;;;5074768;28;20225;-87
2022/09/28 12:58:58;;;;;;;0.20;0.20;;;16.90;99.90;;;;;;5076095;28;20219;-85
2022/09/28 13:01:45;;;;;;;0.33;0.33;;;16.80;99.90;;;;;;5077046;28;20220;-89
2022/09/28 13:04:42;;;;;;;0.77;0.30;;;16.70;99.90;;;;;;5093260;28;20224;-88
2022/09/28 13:07:46;;;;;;;0.20;0.20;;;16.70;99.90;;;;;;5076110;28;20286;-86
2022/09/28 13:10:33;;;;;;;0.20;0.20;;;16.70;99.90;;;;;;5023809;28;20332;-87
2022/09/28 13:13:01;;;;;;;3.40;0.30;;;16.80;99.90;;;;;;5075747;28;20271;-87
2022/09/28 13:15:41;;;;;;;0.10;0.10;;;16.80;99.90;;;;;;5076668;28;20299;-87
2022/09/28 13:18:29;;;;;;;1.80;0.30;;;16.50;99.90;;;;;;5074359;28;20746;-87
2022/09/28 13:21:09;;;;;;;0.20;0.20;;;16.70;99.90;;;;;;5074845;28;20169;-88
2022/09/28 13:23:42;;;;;;;3.00;0.30;;;16.50;99.90;;;;;;5077364;28;20238;-88
2022/09/28 13:26:12;;;;;;;0.97;0.20;;;16.60;99.90;;;;;;5075137;28;20304;-90
2022/09/28 13:28:41;;;;;;;0.27;0.27;;;16.80;99.90;;;;;;5075728;28;20216;-88
2022/09/28 13:31:09;;;;;;;0.30;0.30;;;16.90;99.90;;;;;;5075372;28;20221;-90
2022/09/28 13:33:42;;;;;;;0.10;0.10;;;17.00;99.90;;;;;;5091656;28;20221;-88
2022/09/28 13:36:26;;;;;;;0.67;0.30;;;17.10;99.90;;;;;;5075563;28;20222;-89